CheckWX is a tool to help pilots better visualize weather data.  It is not intended as a substitute for an official pre-flight weather briefing.

11:55:37 UTC

CYQL METAR
Lethbridge County Airport
Lethbridge, Canada
Current

16 mins ago

CYQL 201140Z AUTO 28005KT 1 3/4SM -SN BKN028 OVC034 M02/M02 A3014 RMK SLP249
Observed
Nov-20 @ 11:40 UTC
Wind
  • 280° at 5 KTS
Visibility
1 3/4 SM
Flight Rules
IFR
Conditions
Light Snow
Cloud Levels
  • Broken at 2,800' AGL
  • Overcast at 3,400' AGL
Temperature
-2°C / 28°F
Dewpoint
-2°C / 28°F
Humidity
100%
Altimeter
30.14" Hg
Pressure
1020.62 hPa
Previous

46 mins ago

CYQL 201110Z AUTO 29006KT 2SM -SN OVC026 M02/M02 A3014 RMK SLP248
Observed
Nov-20 @ 11:10 UTC
Wind
  • 290° at 6 KTS
Visibility
2 SM
Flight Rules
IFR
Conditions
Light Snow
Cloud Levels
  • Overcast at 2,600' AGL
Temperature
-2°C / 28°F
Dewpoint
-2°C / 28°F
Humidity
100%
Altimeter
30.14" Hg
Pressure
1020.62 hPa
Previous

56 mins ago

CYQL 201100Z AUTO 28006KT 1 1/2SM -SN OVC022 M02/M02 A3013 RMK SLP246
Observed
Nov-20 @ 11:00 UTC
Wind
  • 280° at 6 KTS
Visibility
1 1/2 SM
Flight Rules
IFR
Conditions
Light Snow
Cloud Levels
  • Overcast at 2,200' AGL
Temperature
-2°C / 28°F
Dewpoint
-2°C / 28°F
Humidity
100%
Altimeter
30.13" Hg
Pressure
1020.32 hPa